sensor_id;sensor_type;location;lat;lon;timestamp;pressure;altitude;pressure_sealevel;temperature;humidity
13478;BME280;12598;62.382;17.344;2023-12-20T00:00:33;98604.31;;;16.75;22.41
13478;BME280;12598;62.382;17.344;2023-12-20T00:01:36;98595.47;;;16.75;22.21
13478;BME280;12598;62.382;17.344;2023-12-20T00:02:37;98595.63;;;16.67;22.13
13478;BME280;12598;62.382;17.344;2023-12-20T00:03:40;98596.50;;;16.74;21.92
13478;BME280;12598;62.382;17.344;2023-12-20T00:04:43;98611.69;;;16.73;22.02
13478;BME280;12598;62.382;17.344;2023-12-20T00:05:45;98599.38;;;16.72;22.28
13478;BME280;12598;62.382;17.344;2023-12-20T00:06:47;98601.03;;;16.73;22.42
13478;BME280;12598;62.382;17.344;2023-12-20T00:07:49;98600.38;;;16.71;22.06
13478;BME280;12598;62.382;17.344;2023-12-20T00:08:51;98608.38;;;16.71;22.58
13478;BME280;12598;62.382;17.344;2023-12-20T00:09:53;98603.63;;;16.67;22.56
13478;BME280;12598;62.382;17.344;2023-12-20T00:10:55;98620.72;;;16.72;22.58
13478;BME280;12598;62.382;17.344;2023-12-20T00:11:57;98612.06;;;16.70;22.46
13478;BME280;12598;62.382;17.344;2023-12-20T00:12:58;98614.75;;;16.70;22.35
13478;BME280;12598;62.382;17.344;2023-12-20T00:14:00;98611.22;;;16.70;22.34
13478;BME280;12598;62.382;17.344;2023-12-20T00:15:02;98595.03;;;16.50;22.49
13478;BME280;12598;62.382;17.344;2023-12-20T00:16:04;98629.91;;;16.70;22.28
13478;BME280;12598;62.382;17.344;2023-12-20T00:17:06;98628.09;;;16.70;22.41
13478;BME280;12598;62.382;17.344;2023-12-20T00:18:09;98628.25;;;16.69;22.49
13478;BME280;12598;62.382;17.344;2023-12-20T00:19:11;98637.09;;;16.69;22.04
13478;BME280;12598;62.382;17.344;2023-12-20T00:20:13;98624.78;;;16.68;22.54
13478;BME280;12598;62.382;17.344;2023-12-20T00:21:15;98632.78;;;16.68;22.19
13478;BME280;12598;62.382;17.344;2023-12-20T00:22:16;98637.28;;;16.68;22.23
13478;BME280;12598;62.382;17.344;2023-12-20T00:23:18;98637.03;;;16.63;22.46
13478;BME280;12598;62.382;17.344;2023-12-20T00:24:20;98644.47;;;16.67;22.37
13478;BME280;12598;62.382;17.344;2023-12-20T00:25:22;98637.22;;;16.61;22.24
13478;BME280;12598;62.382;17.344;2023-12-20T00:26:24;98650.00;;;16.66;22.27
13478;BME280;12598;62.382;17.344;2023-12-20T00:27:26;98662.53;;;16.65;22.23
13478;BME280;12598;62.382;17.344;2023-12-20T00:28:27;98649.19;;;16.65;22.28
13478;BME280;12598;62.382;17.344;2023-12-20T00:29:29;98620.19;;;16.41;22.38
13478;BME280;12598;62.382;17.344;2023-12-20T00:30:31;98665.34;;;16.64;22.33
13478;BME280;12598;62.382;17.344;2023-12-20T00:31:33;98667.00;;;16.65;22.04
13478;BME280;12598;62.382;17.344;2023-12-20T00:32:35;98668.88;;;16.64;22.29
13478;BME280;12598;62.382;17.344;2023-12-20T00:33:37;98662.06;;;16.62;22.46
13478;BME280;12598;62.382;17.344;2023-12-20T00:34:41;98665.56;;;16.62;22.40
13478;BME280;12598;62.382;17.344;2023-12-20T00:35:43;98659.22;;;16.63;22.60
13478;BME280;12598;62.382;17.344;2023-12-20T00:36:45;98656.94;;;16.60;22.42
13478;BME280;12598;62.382;17.344;2023-12-20T00:37:47;98660.31;;;16.54;22.61
13478;BME280;12598;62.382;17.344;2023-12-20T00:38:49;98662.91;;;16.62;22.41
13478;BME280;12598;62.382;17.344;2023-12-20T00:39:51;98667.38;;;16.62;22.62
13478;BME280;12598;62.382;17.344;2023-12-20T00:40:53;98661.25;;;16.61;22.36
13478;BME280;12598;62.382;17.344;2023-12-20T00:41:55;98663.91;;;16.61;22.39
13478;BME280;12598;62.382;17.344;2023-12-20T00:42:57;98669.25;;;16.61;22.18
13478;BME280;12598;62.382;17.344;2023-12-20T00:43:59;98674.59;;;16.61;22.45
13478;BME280;12598;62.382;17.344;2023-12-20T00:45:00;98672.09;;;16.60;22.46
13478;BME280;12598;62.382;17.344;2023-12-20T00:46:02;98676.41;;;16.61;22.34
13478;BME280;12598;62.382;17.344;2023-12-20T00:47:04;98679.06;;;16.61;22.20
13478;BME280;12598;62.382;17.344;2023-12-20T00:48:06;98681.75;;;16.61;22.67
13478;BME280;12598;62.382;17.344;2023-12-20T00:49:08;98685.25;;;16.61;22.27
13478;BME280;12598;62.382;17.344;2023-12-20T00:50:10;98689.75;;;16.61;22.46
13478;BME280;12598;62.382;17.344;2023-12-20T00:51:11;98694.28;;;16.60;22.38
13478;BME280;12598;62.382;17.344;2023-12-20T00:52:13;98683.31;;;16.55;22.58
13478;BME280;12598;62.382;17.344;2023-12-20T00:53:15;98692.41;;;16.61;22.57
13478;BME280;12598;62.382;17.344;2023-12-20T00:54:17;98690.75;;;16.60;22.38
13478;BME280;12598;62.382;17.344;2023-12-20T00:55:19;98677.97;;;16.55;22.70
13478;BME280;12598;62.382;17.344;2023-12-20T00:56:21;98695.28;;;16.59;22.27
13478;BME280;12598;62.382;17.344;2023-12-20T00:57:23;98692.63;;;16.59;22.44
13478;BME280;12598;62.382;17.344;2023-12-20T00:58:25;98692.63;;;16.59;22.15
13478;BME280;12598;62.382;17.344;2023-12-20T00:59:28;98683.78;;;16.59;22.33
13478;BME280;12598;62.382;17.344;2023-12-20T01:00:29;98682.13;;;16.58;22.36
13478;BME280;12598;62.382;17.344;2023-12-20T01:01:31;98684.78;;;16.58;22.40
13478;BME280;12598;62.382;17.344;2023-12-20T01:02:35;98690.13;;;16.58;22.49
13478;BME280;12598;62.382;17.344;2023-12-20T01:03:37;98679.75;;;16.48;22.29
13478;BME280;12598;62.382;17.344;2023-12-20T01:04:39;98672.59;;;16.49;22.51
13478;BME280;12598;62.382;17.344;2023-12-20T01:05:40;98685.81;;;16.57;22.44
13478;BME280;12598;62.382;17.344;2023-12-20T01:06:42;98684.97;;;16.56;22.63
13478;BME280;12598;62.382;17.344;2023-12-20T01:07:44;98683.31;;;16.55;22.28
13478;BME280;12598;62.382;17.344;2023-12-20T01:08:46;98676.06;;;16.49;22.28
13478;BME280;12598;62.382;17.344;2023-12-20T01:09:48;98687.38;;;16.51;22.58
13478;BME280;12598;62.382;17.344;2023-12-20T01:10:50;98690.50;;;16.55;22.41
13478;BME280;12598;62.382;17.344;2023-12-20T01:11:52;98687.84;;;16.55;22.55
13478;BME280;12598;62.382;17.344;2023-12-20T01:12:54;98699.31;;;16.55;22.62
13478;BME280;12598;62.382;17.344;2023-12-20T01:13:56;98698.50;;;16.55;22.42
13478;BME280;12598;62.382;17.344;2023-12-20T01:14:57;98684.31;;;16.54;22.19
13478;BME280;12598;62.382;17.344;2023-12-20T01:16:00;98683.69;;;16.52;22.60
13478;BME280;12598;62.382;17.344;2023-12-20T01:17:02;98680.31;;;16.44;22.62
13478;BME280;12598;62.382;17.344;2023-12-20T01:18:04;98689.03;;;16.52;22.37
13478;BME280;12598;62.382;17.344;2023-12-20T01:19:06;98682.63;;;16.47;22.32
13478;BME280;12598;62.382;17.344;2023-12-20T01:20:08;98679.56;;;16.50;22.60
13478;BME280;12598;62.382;17.344;2023-12-20T01:21:10;98678.28;;;16.46;22.65
13478;BME280;12598;62.382;17.344;2023-12-20T01:22:12;98689.03;;;16.52;22.46
13478;BME280;12598;62.382;17.344;2023-12-20T01:23:14;98691.44;;;16.47;22.56
13478;BME280;12598;62.382;17.344;2023-12-20T01:24:16;98697.03;;;16.52;22.33
13478;BME280;12598;62.382;17.344;2023-12-20T01:25:18;98699.69;;;16.52;22.27
13478;BME280;12598;62.382;17.344;2023-12-20T01:26:20;98699.91;;;16.51;22.56
13478;BME280;12598;62.382;17.344;2023-12-20T01:27:22;98705.22;;;16.51;22.55
13478;BME280;12598;62.382;17.344;2023-12-20T01:28:24;98710.56;;;16.51;22.53
13478;BME280;12598;62.382;17.344;2023-12-20T01:29:25;98706.63;;;16.47;22.42
13478;BME280;12598;62.382;17.344;2023-12-20T01:30:27;98697.41;;;16.49;22.50
13478;BME280;12598;62.382;17.344;2023-12-20T01:31:29;98700.06;;;16.49;22.66
13478;BME280;12598;62.382;17.344;2023-12-20T01:32:31;98704.13;;;16.45;22.21
13478;BME280;12598;62.382;17.344;2023-12-20T01:33:33;98709.94;;;16.49;22.75
13478;BME280;12598;62.382;17.344;2023-12-20T01:34:35;98716.06;;;16.49;22.48
13478;BME280;12598;62.382;17.344;2023-12-20T01:35:37;98715.63;;;16.46;22.52
13478;BME280;12598;62.382;17.344;2023-12-20T01:36:39;98716.28;;;16.48;22.57
13478;BME280;12598;62.382;17.344;2023-12-20T01:37:41;98716.28;;;16.48;22.43
13478;BME280;12598;62.382;17.344;2023-12-20T01:38:43;98730.44;;;16.48;22.80
13478;BME280;12598;62.382;17.344;2023-12-20T01:39:45;98723.25;;;16.49;22.39
13478;BME280;12598;62.382;17.344;2023-12-20T01:40:47;98712.75;;;16.47;22.35
13478;BME280;12598;62.382;17.344;2023-12-20T01:41:49;98712.75;;;16.47;22.63
13478;BME280;12598;62.382;17.344;2023-12-20T01:43:00;98719.75;;;16.48;22.69
13478;BME280;12598;62.382;17.344;2023-12-20T01:44:03;98715.81;;;16.44;22.37
13478;BME280;12598;62.382;17.344;2023-12-20T01:45:06;98715.25;;;16.49;22.66
13478;BME280;12598;62.382;17.344;2023-12-20T01:46:07;98725.94;;;16.49;22.58
13478;BME280;12598;62.382;17.344;2023-12-20T01:47:09;98711.69;;;16.42;22.33
13478;BME280;12598;62.382;17.344;2023-12-20T01:48:11;98716.44;;;16.46;22.41
13478;BME280;12598;62.382;17.344;2023-12-20T01:49:14;98713.97;;;16.45;22.61
13478;BME280;12598;62.382;17.344;2023-12-20T01:50:16;98712.75;;;16.47;22.52
13478;BME280;12598;62.382;17.344;2023-12-20T01:51:19;98715.63;;;16.46;22.36
13478;BME280;12598;62.382;17.344;2023-12-20T01:52:21;98726.31;;;16.46;22.69
13478;BME280;12598;62.382;17.344;2023-12-20T01:53:25;98720.13;;;16.45;22.52
13478;BME280;12598;62.382;17.344;2023-12-20T01:54:27;98725.47;;;16.45;22.64
13478;BME280;12598;62.382;17.344;2023-12-20T01:55:33;98718.47;;;16.44;22.68
13478;BME280;12598;62.382;17.344;2023-12-20T01:56:36;98710.31;;;16.46;22.63
13478;BME280;12598;62.382;17.344;2023-12-20T01:57:40;98721.34;;;16.43;22.84
13478;BME280;12598;62.382;17.344;2023-12-20T01:58:44;98725.47;;;16.45;22.60
13478;BME280;12598;62.382;17.344;2023-12-20T01:59:47;98730.00;;;16.45;22.24
13478;BME280;12598;62.382;17.344;2023-12-20T02:00:49;98723.81;;;16.44;22.50
13478;BME280;12598;62.382;17.344;2023-12-20T02:01:51;98716.81;;;16.43;22.52
13478;BME280;12598;62.382;17.344;2023-12-20T02:02:53;98716.81;;;16.43;22.52
13478;BME280;12598;62.382;17.344;2023-12-20T02:03:56;98733.66;;;16.44;22.75
13478;BME280;12598;62.382;17.344;2023-12-20T02:04:58;98714.91;;;16.37;22.59
13478;BME280;12598;62.382;17.344;2023-12-20T02:06:00;98721.34;;;16.43;22.47
13478;BME280;12598;62.382;17.344;2023-12-20T02:07:03;98715.53;;;16.39;22.78
13478;BME280;12598;62.382;17.344;2023-12-20T02:08:06;98725.84;;;16.42;22.54
13478;BME280;12598;62.382;17.344;2023-12-20T02:09:08;98720.88;;;16.39;22.64
13478;BME280;12598;62.382;17.344;2023-12-20T02:10:11;98722.38;;;16.42;22.62
13478;BME280;12598;62.382;17.344;2023-12-20T02:11:12;98720.50;;;16.42;22.72
13478;BME280;12598;62.382;17.344;2023-12-20T02:12:14;98729.53;;;16.41;22.93
13478;BME280;12598;62.382;17.344;2023-12-20T02:13:16;98729.53;;;16.41;22.78
13478;BME280;12598;62.382;17.344;2023-12-20T02:14:18;98714.53;;;16.40;22.71
13478;BME280;12598;62.382;17.344;2023-12-20T02:15:20;98717.41;;;16.39;22.50
13478;BME280;12598;62.382;17.344;2023-12-20T02:16:22;98718.22;;;16.39;22.34
13478;BME280;12598;62.382;17.344;2023-12-20T02:17:25;98720.88;;;16.39;22.59
13478;BME280;12598;62.382;17.344;2023-12-20T02:18:27;98718.22;;;16.39;22.35
13478;BME280;12598;62.382;17.344;2023-12-20T02:19:29;98723.53;;;16.39;22.33
13478;BME280;12598;62.382;17.344;2023-12-20T02:20:31;98710.22;;;16.39;22.69
13478;BME280;12598;62.382;17.344;2023-12-20T02:21:33;98714.72;;;16.39;22.82
13478;BME280;12598;62.382;17.344;2023-12-20T02:22:36;98713.88;;;16.38;22.44
13478;BME280;12598;62.382;17.344;2023-12-20T02:23:38;98715.53;;;16.39;22.40
13478;BME280;12598;62.382;17.344;2023-12-20T02:24:40;98718.41;;;16.38;22.53
13478;BME280;12598;62.382;17.344;2023-12-20T02:25:41;98714.72;;;16.39;22.46
13478;BME280;12598;62.382;17.344;2023-12-20T02:26:43;98724.56;;;16.38;22.88
13478;BME280;12598;62.382;17.344;2023-12-20T02:27:48;98724.56;;;16.38;22.82
13478;BME280;12598;62.382;17.344;2023-12-20T02:28:50;98723.75;;;16.38;22.78
13478;BME280;12598;62.382;17.344;2023-12-20T02:29:52;98703.66;;;16.27;22.62
13478;BME280;12598;62.382;17.344;2023-12-20T02:30:54;98715.41;;;16.33;22.54
13478;BME280;12598;62.382;17.344;2023-12-20T02:31:56;98732.72;;;16.37;22.56
13478;BME280;12598;62.382;17.344;2023-12-20T02:32:59;98712.94;;;16.31;22.57
13478;BME280;12598;62.382;17.344;2023-12-20T02:34:01;98731.53;;;16.39;22.45
13478;BME280;12598;62.382;17.344;2023-12-20T02:35:03;98726.09;;;16.33;22.58
13478;BME280;12598;62.382;17.344;2023-12-20T02:36:06;98721.97;;;16.30;22.66
13478;BME280;12598;62.382;17.344;2023-12-20T02:37:08;98737.09;;;16.38;22.54
13478;BME280;12598;62.382;17.344;2023-12-20T02:38:10;98739.75;;;16.38;22.49
13478;BME280;12598;62.382;17.344;2023-12-20T02:39:11;98744.25;;;16.37;22.49
13478;BME280;12598;62.382;17.344;2023-12-20T02:40:13;98743.41;;;16.37;22.71
13478;BME280;12598;62.382;17.344;2023-12-20T02:41:15;98742.59;;;16.36;22.75
13478;BME280;12598;62.382;17.344;2023-12-20T02:42:19;98740.72;;;16.37;22.47
13478;BME280;12598;62.382;17.344;2023-12-20T02:43:21;98742.59;;;16.36;22.43
13478;BME280;12598;62.382;17.344;2023-12-20T02:44:23;98743.41;;;16.37;22.37
13478;BME280;12598;62.382;17.344;2023-12-20T02:45:26;98742.97;;;16.33;22.54
13478;BME280;12598;62.382;17.344;2023-12-20T02:46:28;98746.44;;;16.34;22.78
13478;BME280;12598;62.382;17.344;2023-12-20T02:47:30;98741.28;;;16.32;22.66
13478;BME280;12598;62.382;17.344;2023-12-20T02:48:32;98750.75;;;16.35;22.47
13478;BME280;12598;62.382;17.344;2023-12-20T02:49:34;98754.28;;;16.35;22.54
13478;BME280;12598;62.382;17.344;2023-12-20T02:50:35;98749.09;;;16.34;22.79
13478;BME280;12598;62.382;17.344;2023-12-20T02:51:37;98742.81;;;16.27;22.65
13478;BME280;12598;62.382;17.344;2023-12-20T02:52:40;98750.75;;;16.35;22.49
13478;BME280;12598;62.382;17.344;2023-12-20T02:53:42;98750.75;;;16.35;22.51
13478;BME280;12598;62.382;17.344;2023-12-20T02:54:44;98758.97;;;16.33;22.67
13478;BME280;12598;62.382;17.344;2023-12-20T02:55:45;98754.44;;;16.34;22.57
13478;BME280;12598;62.382;17.344;2023-12-20T02:56:48;98744.63;;;16.34;22.43
13478;BME280;12598;62.382;17.344;2023-12-20T02:57:50;98732.00;;;16.28;22.56
13478;BME280;12598;62.382;17.344;2023-12-20T02:58:52;98746.59;;;16.32;22.48
13478;BME280;12598;62.382;17.344;2023-12-20T02:59:53;98741.66;;;16.29;22.51
13478;BME280;12598;62.382;17.344;2023-12-20T03:00:55;98756.09;;;16.35;22.72
13478;BME280;12598;62.382;17.344;2023-12-20T03:01:57;98753.63;;;16.33;22.77
13478;BME280;12598;62.382;17.344;2023-12-20T03:02:59;98751.59;;;16.35;22.46
13478;BME280;12598;62.382;17.344;2023-12-20T03:04:01;98759.94;;;16.32;22.43
13478;BME280;12598;62.382;17.344;2023-12-20T03:05:03;98741.28;;;16.32;22.28
13478;BME280;12598;62.382;17.344;2023-12-20T03:06:05;98752.63;;;16.34;22.68
13478;BME280;12598;62.382;17.344;2023-12-20T03:07:07;98750.97;;;16.33;22.80
13478;BME280;12598;62.382;17.344;2023-12-20T03:08:09;98764.94;;;16.35;22.69
13478;BME280;12598;62.382;17.344;2023-12-20T03:09:12;98750.00;;;16.27;22.42
13478;BME280;12598;62.382;17.344;2023-12-20T03:10:14;98749.44;;;16.31;22.43
13478;BME280;12598;62.382;17.344;2023-12-20T03:11:27;98767.59;;;16.35;22.44
13478;BME280;12598;62.382;17.344;2023-12-20T03:12:30;98744.31;;;16.29;22.57
13478;BME280;12598;62.382;17.344;2023-12-20T03:13:32;98747.28;;;16.34;22.61
13478;BME280;12598;62.382;17.344;2023-12-20T03:14:34;98757.94;;;16.34;22.42
13478;BME280;12598;62.382;17.344;2023-12-20T03:15:35;98748.28;;;16.33;22.70
13478;BME280;12598;62.382;17.344;2023-12-20T03:16:37;98750.97;;;16.33;22.48
13478;BME280;12598;62.382;17.344;2023-12-20T03:17:39;98742.47;;;16.30;22.48
13478;BME280;12598;62.382;17.344;2023-12-20T03:18:41;98747.63;;;16.31;22.32
13478;BME280;12598;62.382;17.344;2023-12-20T03:19:43;98753.31;;;16.28;22.60
13478;BME280;12598;62.382;17.344;2023-12-20T03:20:45;98758.09;;;16.33;22.50
13478;BME280;12598;62.382;17.344;2023-12-20T03:21:48;98736.94;;;16.17;22.76
13478;BME280;12598;62.382;17.344;2023-12-20T03:22:50;98755.63;;;16.31;22.46
13478;BME280;12598;62.382;17.344;2023-12-20T03:23:52;98742.66;;;16.28;22.58
13478;BME280;12598;62.382;17.344;2023-12-20T03:24:54;98759.31;;;16.30;22.93
13478;BME280;12598;62.382;17.344;2023-12-20T03:25:56;98768.75;;;16.33;22.89
13478;BME280;12598;62.382;17.344;2023-12-20T03:26:58;98749.38;;;16.25;22.57
13478;BME280;12598;62.382;17.344;2023-12-20T03:28:00;98750.81;;;16.27;22.67
13478;BME280;12598;62.382;17.344;2023-12-20T03:29:01;98756.81;;;16.29;22.50
13478;BME280;12598;62.382;17.344;2023-12-20T03:30:04;98763.63;;;16.31;22.37
13478;BME280;12598;62.382;17.344;2023-12-20T03:31:06;98770.44;;;16.34;22.73
13478;BME280;12598;62.382;17.344;2023-12-20T03:32:08;98750.19;;;16.25;22.61
13478;BME280;12598;62.382;17.344;2023-12-20T03:33:10;98763.41;;;16.33;22.79
13478;BME280;12598;62.382;17.344;2023-12-20T03:34:12;98761.31;;;16.28;22.68
13478;BME280;12598;62.382;17.344;2023-12-20T03:35:14;98760.75;;;16.33;22.83
13478;BME280;12598;62.382;17.344;2023-12-20T03:36:16;98767.94;;;16.32;22.42
13478;BME280;12598;62.382;17.344;2023-12-20T03:37:18;98761.31;;;16.28;22.63
13478;BME280;12598;62.382;17.344;2023-12-20T03:38:21;98774.09;;;16.33;22.62
13478;BME280;12598;62.382;17.344;2023-12-20T03:39:23;98775.78;;;16.34;22.41
13478;BME280;12598;62.382;17.344;2023-12-20T03:40:24;98774.97;;;16.33;22.47
13478;BME280;12598;62.382;17.344;2023-12-20T03:41:26;98775.94;;;16.32;22.60
13478;BME280;12598;62.382;17.344;2023-12-20T03:42:28;98774.09;;;16.33;22.56
13478;BME280;12598;62.382;17.344;2023-12-20T03:43:30;98773.28;;;16.32;22.55
13478;BME280;12598;62.382;17.344;2023-12-20T03:44:31;98764.34;;;16.26;22.52
13478;BME280;12598;62.382;17.344;2023-12-20T03:45:33;98766.19;;;16.25;22.95
13478;BME280;12598;62.382;17.344;2023-12-20T03:46:35;98777.75;;;16.32;22.66
13478;BME280;12598;62.382;17.344;2023-12-20T03:47:37;98780.28;;;16.33;22.79
13478;BME280;12598;62.382;17.344;2023-12-20T03:48:39;98780.63;;;16.30;22.44
13478;BME280;12598;62.382;17.344;2023-12-20T03:49:40;98784.75;;;16.33;22.50
13478;BME280;12598;62.382;17.344;2023-12-20T03:50:42;98778.59;;;16.32;22.49
13478;BME280;12598;62.382;17.344;2023-12-20T03:51:44;98778.34;;;16.27;22.70
13478;BME280;12598;62.382;17.344;2023-12-20T03:52:46;98783.94;;;16.32;22.50
13478;BME280;12598;62.382;17.344;2023-12-20T03:53:48;98783.94;;;16.32;22.47
13478;BME280;12598;62.382;17.344;2023-12-20T03:54:49;98785.13;;;16.30;22.77
13478;BME280;12598;62.382;17.344;2023-12-20T03:55:51;98778.34;;;16.27;22.62
13478;BME280;12598;62.382;17.344;2023-12-20T03:56:53;98773.53;;;16.23;22.70
13478;BME280;12598;62.382;17.344;2023-12-20T03:57:55;98791.94;;;16.32;22.32
13478;BME280;12598;62.382;17.344;2023-12-20T03:58:57;98776.94;;;16.31;22.45
13478;BME280;12598;62.382;17.344;2023-12-20T03:59:58;98774.28;;;16.31;22.62
13478;BME280;12598;62.382;17.344;2023-12-20T04:01:01;98783.94;;;16.32;22.52
13478;BME280;12598;62.382;17.344;2023-12-20T04:02:03;98787.63;;;16.31;22.42
13478;BME280;12598;62.382;17.344;2023-12-20T04:03:05;98785.75;;;16.32;22.47
13478;BME280;12598;62.382;17.344;2023-12-20T04:04:07;98784.94;;;16.31;22.74
13478;BME280;12598;62.382;17.344;2023-12-20T04:05:09;98776.09;;;16.31;22.61
13478;BME280;12598;62.382;17.344;2023-12-20T04:06:17;98773.44;;;16.31;22.63
13478;BME280;12598;62.382;17.344;2023-12-20T04:07:19;98770.59;;;16.32;22.75
13478;BME280;12598;62.382;17.344;2023-12-20T04:08:21;98775.09;;;16.32;22.48
13478;BME280;12598;62.382;17.344;2023-12-20T04:09:23;98773.28;;;16.32;22.56
13478;BME280;12598;62.382;17.344;2023-12-20T04:10:24;98775.94;;;16.32;22.51
13478;BME280;12598;62.382;17.344;2023-12-20T04:11:26;98765.44;;;16.31;22.68
13478;BME280;12598;62.382;17.344;2023-12-20T04:12:28;98776.94;;;16.31;22.50
13478;BME280;12598;62.382;17.344;2023-12-20T04:13:30;98777.97;;;16.30;22.71
13478;BME280;12598;62.382;17.344;2023-12-20T04:14:32;98777.97;;;16.30;22.63
13478;BME280;12598;62.382;17.344;2023-12-20T04:15:33;98780.63;;;16.30;22.53
13478;BME280;12598;62.382;17.344;2023-12-20T04:16:36;98784.31;;;16.29;22.63
13478;BME280;12598;62.382;17.344;2023-12-20T04:17:38;98791.28;;;16.30;22.49
13478;BME280;12598;62.382;17.344;2023-12-20T04:18:40;98785.13;;;16.30;22.73
13478;BME280;12598;62.382;17.344;2023-12-20T04:19:42;98780.81;;;16.29;22.69
13478;BME280;12598;62.382;17.344;2023-12-20T04:20:44;98782.44;;;16.30;22.59
13478;BME280;12598;62.382;17.344;2023-12-20T04:21:46;98782.66;;;16.28;22.65
13478;BME280;12598;62.382;17.344;2023-12-20T04:22:48;98777.69;;;16.26;22.54
13478;BME280;12598;62.382;17.344;2023-12-20T04:23:50;98783.47;;;16.29;22.53
13478;BME280;12598;62.382;17.344;2023-12-20T04:24:51;98788.00;;;16.28;22.68
13478;BME280;12598;62.382;17.344;2023-12-20T04:25:54;98782.00;;;16.27;22.51
13478;BME280;12598;62.382;17.344;2023-12-20T04:26:56;98788.78;;;16.29;22.41
13478;BME280;12598;62.382;17.344;2023-12-20T04:27:57;98794.13;;;16.29;22.51
13478;BME280;12598;62.382;17.344;2023-12-20T04:28:59;98782.66;;;16.28;22.74
13478;BME280;12598;62.382;17.344;2023-12-20T04:30:01;98780.16;;;16.27;22.83
13478;BME280;12598;62.382;17.344;2023-12-20T04:31:03;98775.66;;;16.27;22.65
13478;BME280;12598;62.382;17.344;2023-12-20T04:32:05;98785.31;;;16.28;22.50
13478;BME280;12598;62.382;17.344;2023-12-20T04:33:07;98785.31;;;16.28;22.82
13478;BME280;12598;62.382;17.344;2023-12-20T04:34:09;98779.34;;;16.27;22.72
13478;BME280;12598;62.382;17.344;2023-12-20T04:35:10;98782.00;;;16.27;22.88
13478;BME280;12598;62.382;17.344;2023-12-20T04:36:12;98785.69;;;16.26;22.49
13478;BME280;12598;62.382;17.344;2023-12-20T04:37:14;98787.34;;;16.27;22.57
13478;BME280;12598;62.382;17.344;2023-12-20T04:38:16;98782.53;;;16.22;22.76
13478;BME280;12598;62.382;17.344;2023-12-20T04:39:18;98788.34;;;16.26;22.50
13478;BME280;12598;62.382;17.344;2023-12-20T04:40:20;98799.84;;;16.26;22.75
13478;BME280;12598;62.382;17.344;2023-12-20T04:41:21;98800.69;;;16.27;22.76
13478;BME280;12598;62.382;17.344;2023-12-20T04:42:23;98796.09;;;16.21;22.45
13478;BME280;12598;62.382;17.344;2023-12-20T04:43:25;98799.03;;;16.26;22.62
13478;BME280;12598;62.382;17.344;2023-12-20T04:44:27;98799.84;;;16.26;22.54
13478;BME280;12598;62.382;17.344;2023-12-20T04:45:29;98803.50;;;16.25;22.49
13478;BME280;12598;62.382;17.344;2023-12-20T04:46:30;98802.69;;;16.25;22.72
13478;BME280;12598;62.382;17.344;2023-12-20T04:47:32;98800.03;;;16.25;22.54
13478;BME280;12598;62.382;17.344;2023-12-20T04:48:34;98801.69;;;16.26;22.71
13478;BME280;12598;62.382;17.344;2023-12-20T04:49:36;98785.31;;;16.14;22.40
13478;BME280;12598;62.382;17.344;2023-12-20T04:50:38;98805.38;;;16.25;22.51
13478;BME280;12598;62.382;17.344;2023-12-20T04:51:40;98813.38;;;16.25;22.61
13478;BME280;12598;62.382;17.344;2023-12-20T04:52:42;98805.09;;;16.20;22.85
13478;BME280;12598;62.382;17.344;2023-12-20T04:53:44;98805.38;;;16.25;22.53
13478;BME280;12598;62.382;17.344;2023-12-20T04:54:45;98810.69;;;16.25;22.77
13478;BME280;12598;62.382;17.344;2023-12-20T04:55:47;98810.69;;;16.25;22.64
13478;BME280;12598;62.382;17.344;2023-12-20T04:56:49;98801.41;;;16.21;22.55
13478;BME280;12598;62.382;17.344;2023-12-20T04:57:51;98797.47;;;16.17;22.55
13478;BME280;12598;62.382;17.344;2023-12-20T04:58:53;98802.69;;;16.25;22.43
13478;BME280;12598;62.382;17.344;2023-12-20T04:59:55;98807.19;;;16.24;22.51
13478;BME280;12598;62.382;17.344;2023-12-20T05:00:56;98794.78;;;16.17;22.63
13478;BME280;12598;62.382;17.344;2023-12-20T05:01:58;98807.19;;;16.24;22.49
13478;BME280;12598;62.382;17.344;2023-12-20T05:03:00;98811.72;;;16.24;22.59
13478;BME280;12598;62.382;17.344;2023-12-20T05:04:02;98808.03;;;16.25;22.62
13478;BME280;12598;62.382;17.344;2023-12-20T05:05:05;98812.53;;;16.24;22.66
13478;BME280;12598;62.382;17.344;2023-12-20T05:06:06;98813.38;;;16.25;22.72
13478;BME280;12598;62.382;17.344;2023-12-20T05:07:08;98812.53;;;16.24;22.49
13478;BME280;12598;62.382;17.344;2023-12-20T05:08:10;98815.19;;;16.24;22.75
13478;BME280;12598;62.382;17.344;2023-12-20T05:09:12;98817.84;;;16.24;22.75
13478;BME280;12598;62.382;17.344;2023-12-20T05:10:14;98824.84;;;16.25;22.45
13478;BME280;12598;62.382;17.344;2023-12-20T05:11:16;98818.69;;;16.25;22.48
13478;BME280;12598;62.382;17.344;2023-12-20T05:12:18;98823.19;;;16.24;22.82
13478;BME280;12598;62.382;17.344;2023-12-20T05:13:20;98824.03;;;16.25;22.74
13478;BME280;12598;62.382;17.344;2023-12-20T05:14:22;98819.50;;;16.25;22.32
13478;BME280;12598;62.382;17.344;2023-12-20T05:15:24;98823.56;;;16.21;22.68
13478;BME280;12598;62.382;17.344;2023-12-20T05:16:26;98808.28;;;16.15;22.30
13478;BME280;12598;62.382;17.344;2023-12-20T05:17:28;98804.50;;;16.10;22.44
13478;BME280;12598;62.382;17.344;2023-12-20T05:18:30;98827.72;;;16.24;22.46
13478;BME280;12598;62.382;17.344;2023-12-20T05:19:32;98832.19;;;16.23;22.72
13478;BME280;12598;62.382;17.344;2023-12-20T05:20:37;98828.34;;;16.26;22.42
13478;BME280;12598;62.382;17.344;2023-12-20T05:21:38;98821.53;;;16.23;22.52
13478;BME280;12598;62.382;17.344;2023-12-20T05:22:41;98821.53;;;16.23;22.36
13478;BME280;12598;62.382;17.344;2023-12-20T05:23:42;98825.84;;;16.24;22.48
13478;BME280;12598;62.382;17.344;2023-12-20T05:24:44;98810.13;;;16.15;22.69